sensor_id;sensor_type;location;lat;lon;timestamp;P1;durP1;ratioP1;P2;durP2;ratioP2
71207;SDS011;58938;49.868;8.646;2023-12-04T00:00:37;23.57;;;10.70;;
71207;SDS011;58938;49.868;8.646;2023-12-04T00:03:03;21.70;;;9.75;;
71207;SDS011;58938;49.868;8.646;2023-12-04T00:05:29;19.92;;;10.02;;
71207;SDS011;58938;49.868;8.646;2023-12-04T00:07:55;19.02;;;9.65;;
71207;SDS011;58938;49.868;8.646;2023-12-04T00:10:21;21.25;;;9.82;;
71207;SDS011;58938;49.868;8.646;2023-12-04T00:12:47;23.50;;;10.48;;
71207;SDS011;58938;49.868;8.646;2023-12-04T00:15:13;18.67;;;9.95;;
71207;SDS011;58938;49.868;8.646;2023-12-04T00:17:39;20.83;;;10.43;;
71207;SDS011;58938;49.868;8.646;2023-12-04T00:20:06;21.50;;;11.17;;
71207;SDS011;58938;49.868;8.646;2023-12-04T00:22:32;23.92;;;10.32;;
71207;SDS011;58938;49.868;8.646;2023-12-04T00:24:58;19.70;;;9.65;;
71207;SDS011;58938;49.868;8.646;2023-12-04T00:27:24;25.48;;;9.85;;
71207;SDS011;58938;49.868;8.646;2023-12-04T00:29:52;20.48;;;9.85;;
71207;SDS011;58938;49.868;8.646;2023-12-04T00:32:18;24.60;;;11.07;;
71207;SDS011;58938;49.868;8.646;2023-12-04T00:34:44;22.45;;;9.13;;
71207;SDS011;58938;49.868;8.646;2023-12-04T00:37:10;25.98;;;11.50;;
71207;SDS011;58938;49.868;8.646;2023-12-04T00:39:36;19.95;;;9.60;;
71207;SDS011;58938;49.868;8.646;2023-12-04T00:42:02;19.67;;;10.50;;
71207;SDS011;58938;49.868;8.646;2023-12-04T00:44:28;19.92;;;9.60;;
71207;SDS011;58938;49.868;8.646;2023-12-04T00:46:54;19.00;;;9.77;;
71207;SDS011;58938;49.868;8.646;2023-12-04T00:49:20;20.33;;;9.65;;
71207;SDS011;58938;49.868;8.646;2023-12-04T00:51:45;23.13;;;9.73;;
71207;SDS011;58938;49.868;8.646;2023-12-04T00:54:11;23.35;;;9.07;;
71207;SDS011;58938;49.868;8.646;2023-12-04T00:56:38;21.85;;;9.35;;
71207;SDS011;58938;49.868;8.646;2023-12-04T00:59:09;19.33;;;9.70;;
71207;SDS011;58938;49.868;8.646;2023-12-04T01:01:36;19.70;;;9.27;;
71207;SDS011;58938;49.868;8.646;2023-12-04T01:04:02;21.42;;;10.07;;
71207;SDS011;58938;49.868;8.646;2023-12-04T01:06:29;19.77;;;10.35;;
71207;SDS011;58938;49.868;8.646;2023-12-04T01:08:55;19.35;;;8.65;;
71207;SDS011;58938;49.868;8.646;2023-12-04T01:11:21;17.52;;;9.25;;
71207;SDS011;58938;49.868;8.646;2023-12-04T01:13:47;20.20;;;9.33;;
71207;SDS011;58938;49.868;8.646;2023-12-04T01:16:14;20.90;;;9.55;;
71207;SDS011;58938;49.868;8.646;2023-12-04T01:18:40;22.00;;;10.60;;
71207;SDS011;58938;49.868;8.646;2023-12-04T01:21:06;19.30;;;9.85;;
71207;SDS011;58938;49.868;8.646;2023-12-04T01:23:34;23.02;;;10.65;;
71207;SDS011;58938;49.868;8.646;2023-12-04T01:26:00;22.67;;;10.07;;
71207;SDS011;58938;49.868;8.646;2023-12-04T01:28:26;22.67;;;9.20;;
71207;SDS011;58938;49.868;8.646;2023-12-04T01:30:52;21.15;;;10.13;;
71207;SDS011;58938;49.868;8.646;2023-12-04T01:33:18;20.65;;;9.40;;
71207;SDS011;58938;49.868;8.646;2023-12-04T01:35:43;18.85;;;9.43;;
71207;SDS011;58938;49.868;8.646;2023-12-04T01:38:09;18.00;;;9.38;;
71207;SDS011;58938;49.868;8.646;2023-12-04T01:40:35;20.80;;;9.73;;
71207;SDS011;58938;49.868;8.646;2023-12-04T01:43:01;20.33;;;9.07;;
71207;SDS011;58938;49.868;8.646;2023-12-04T01:45:27;19.90;;;9.60;;
71207;SDS011;58938;49.868;8.646;2023-12-04T01:47:53;19.13;;;9.50;;
71207;SDS011;58938;49.868;8.646;2023-12-04T01:50:19;20.35;;;10.13;;
71207;SDS011;58938;49.868;8.646;2023-12-04T01:52:47;20.08;;;9.27;;
71207;SDS011;58938;49.868;8.646;2023-12-04T01:55:13;20.15;;;9.70;;
71207;SDS011;58938;49.868;8.646;2023-12-04T01:57:40;20.95;;;10.13;;
71207;SDS011;58938;49.868;8.646;2023-12-04T02:00:06;23.90;;;9.95;;
71207;SDS011;58938;49.868;8.646;2023-12-04T02:02:36;22.48;;;10.05;;
71207;SDS011;58938;49.868;8.646;2023-12-04T02:05:03;19.58;;;9.65;;
71207;SDS011;58938;49.868;8.646;2023-12-04T02:07:30;18.15;;;8.23;;
71207;SDS011;58938;49.868;8.646;2023-12-04T02:09:56;21.20;;;10.95;;
71207;SDS011;58938;49.868;8.646;2023-12-04T02:12:22;20.40;;;9.90;;
71207;SDS011;58938;49.868;8.646;2023-12-04T02:14:48;18.98;;;9.55;;
71207;SDS011;58938;49.868;8.646;2023-12-04T02:17:14;21.42;;;10.35;;
71207;SDS011;58938;49.868;8.646;2023-12-04T02:19:42;20.75;;;8.52;;
71207;SDS011;58938;49.868;8.646;2023-12-04T02:22:08;24.20;;;10.20;;
71207;SDS011;58938;49.868;8.646;2023-12-04T02:24:34;23.70;;;10.38;;
71207;SDS011;58938;49.868;8.646;2023-12-04T02:27:04;21.20;;;9.70;;
71207;SDS011;58938;49.868;8.646;2023-12-04T02:29:32;20.55;;;10.18;;
71207;SDS011;58938;49.868;8.646;2023-12-04T02:32:03;18.33;;;9.32;;
71207;SDS011;58938;49.868;8.646;2023-12-04T02:34:29;17.83;;;8.18;;
71207;SDS011;58938;49.868;8.646;2023-12-04T02:36:58;20.90;;;9.68;;
71207;SDS011;58938;49.868;8.646;2023-12-04T02:39:24;17.53;;;8.67;;
71207;SDS011;58938;49.868;8.646;2023-12-04T02:41:50;16.65;;;8.45;;
71207;SDS011;58938;49.868;8.646;2023-12-04T02:44:16;18.10;;;8.90;;
71207;SDS011;58938;49.868;8.646;2023-12-04T02:46:42;14.88;;;8.70;;
71207;SDS011;58938;49.868;8.646;2023-12-04T02:49:08;17.30;;;7.80;;
71207;SDS011;58938;49.868;8.646;2023-12-04T02:51:34;17.47;;;7.93;;
71207;SDS011;58938;49.868;8.646;2023-12-04T02:54:00;18.55;;;8.57;;
71207;SDS011;58938;49.868;8.646;2023-12-04T02:56:26;14.82;;;7.97;;
71207;SDS011;58938;49.868;8.646;2023-12-04T02:58:52;17.88;;;8.13;;
71207;SDS011;58938;49.868;8.646;2023-12-04T03:01:18;17.27;;;8.48;;
71207;SDS011;58938;49.868;8.646;2023-12-04T03:03:44;17.33;;;8.35;;
71207;SDS011;58938;49.868;8.646;2023-12-04T03:06:10;16.75;;;7.90;;
71207;SDS011;58938;49.868;8.646;2023-12-04T03:08:36;16.23;;;9.20;;
71207;SDS011;58938;49.868;8.646;2023-12-04T03:11:02;18.02;;;7.75;;
71207;SDS011;58938;49.868;8.646;2023-12-04T03:13:28;17.48;;;7.95;;
71207;SDS011;58938;49.868;8.646;2023-12-04T03:15:54;18.58;;;8.80;;
71207;SDS011;58938;49.868;8.646;2023-12-04T03:18:20;15.85;;;7.55;;
71207;SDS011;58938;49.868;8.646;2023-12-04T03:20:48;15.85;;;7.38;;
71207;SDS011;58938;49.868;8.646;2023-12-04T03:23:14;17.52;;;8.65;;
71207;SDS011;58938;49.868;8.646;2023-12-04T03:25:40;19.25;;;8.70;;
71207;SDS011;58938;49.868;8.646;2023-12-04T03:28:05;16.80;;;8.50;;
71207;SDS011;58938;49.868;8.646;2023-12-04T03:30:31;18.42;;;9.20;;
71207;SDS011;58938;49.868;8.646;2023-12-04T03:32:57;16.65;;;8.30;;
71207;SDS011;58938;49.868;8.646;2023-12-04T03:35:23;19.27;;;8.10;;
71207;SDS011;58938;49.868;8.646;2023-12-04T03:37:49;17.70;;;8.30;;
71207;SDS011;58938;49.868;8.646;2023-12-04T03:40:16;18.20;;;8.77;;
71207;SDS011;58938;49.868;8.646;2023-12-04T03:42:42;17.65;;;8.55;;
71207;SDS011;58938;49.868;8.646;2023-12-04T03:45:08;17.00;;;8.35;;
71207;SDS011;58938;49.868;8.646;2023-12-04T03:47:34;17.65;;;7.88;;
71207;SDS011;58938;49.868;8.646;2023-12-04T03:50:00;18.07;;;9.03;;
71207;SDS011;58938;49.868;8.646;2023-12-04T03:52:26;16.73;;;7.82;;
71207;SDS011;58938;49.868;8.646;2023-12-04T03:54:52;19.42;;;8.45;;
71207;SDS011;58938;49.868;8.646;2023-12-04T03:57:18;17.00;;;7.90;;
71207;SDS011;58938;49.868;8.646;2023-12-04T03:59:44;19.17;;;8.23;;
71207;SDS011;58938;49.868;8.646;2023-12-04T04:02:10;18.30;;;9.48;;
71207;SDS011;58938;49.868;8.646;2023-12-04T04:04:36;18.42;;;9.38;;
71207;SDS011;58938;49.868;8.646;2023-12-04T04:07:02;19.08;;;9.68;;
71207;SDS011;58938;49.868;8.646;2023-12-04T04:09:28;36.23;;;12.00;;
71207;SDS011;58938;49.868;8.646;2023-12-04T04:11:54;17.80;;;8.30;;
71207;SDS011;58938;49.868;8.646;2023-12-04T04:14:20;18.33;;;8.45;;
71207;SDS011;58938;49.868;8.646;2023-12-04T04:16:45;17.93;;;9.40;;
71207;SDS011;58938;49.868;8.646;2023-12-04T04:19:11;19.88;;;8.85;;
71207;SDS011;58938;49.868;8.646;2023-12-04T04:21:40;20.75;;;9.80;;
71207;SDS011;58938;49.868;8.646;2023-12-04T04:24:06;18.02;;;8.50;;
71207;SDS011;58938;49.868;8.646;2023-12-04T04:26:32;21.33;;;9.57;;
71207;SDS011;58938;49.868;8.646;2023-12-04T04:28:58;20.50;;;10.45;;
71207;SDS011;58938;49.868;8.646;2023-12-04T04:31:24;18.90;;;8.77;;
71207;SDS011;58938;49.868;8.646;2023-12-04T04:33:50;18.20;;;8.95;;
71207;SDS011;58938;49.868;8.646;2023-12-04T04:36:16;18.00;;;9.03;;
71207;SDS011;58938;49.868;8.646;2023-12-04T04:38:42;14.38;;;8.05;;
71207;SDS011;58938;49.868;8.646;2023-12-04T04:41:12;23.58;;;9.43;;
71207;SDS011;58938;49.868;8.646;2023-12-04T04:43:39;20.10;;;9.80;;
71207;SDS011;58938;49.868;8.646;2023-12-04T04:46:05;18.80;;;9.35;;
71207;SDS011;58938;49.868;8.646;2023-12-04T04:48:31;20.73;;;10.43;;
71207;SDS011;58938;49.868;8.646;2023-12-04T04:50:56;17.38;;;8.90;;
71207;SDS011;58938;49.868;8.646;2023-12-04T04:53:22;22.43;;;10.37;;
71207;SDS011;58938;49.868;8.646;2023-12-04T04:55:48;19.52;;;9.40;;
71207;SDS011;58938;49.868;8.646;2023-12-04T04:58:15;24.23;;;12.00;;
71207;SDS011;58938;49.868;8.646;2023-12-04T05:00:41;21.98;;;9.98;;
71207;SDS011;58938;49.868;8.646;2023-12-04T05:03:07;20.17;;;10.23;;
71207;SDS011;58938;49.868;8.646;2023-12-04T05:05:33;22.05;;;9.25;;
71207;SDS011;58938;49.868;8.646;2023-12-04T05:07:59;19.75;;;9.00;;
71207;SDS011;58938;49.868;8.646;2023-12-04T05:10:25;25.98;;;10.25;;
71207;SDS011;58938;49.868;8.646;2023-12-04T05:12:51;18.52;;;8.82;;
71207;SDS011;58938;49.868;8.646;2023-12-04T05:15:17;21.13;;;9.93;;
71207;SDS011;58938;49.868;8.646;2023-12-04T05:17:42;21.70;;;9.50;;
71207;SDS011;58938;49.868;8.646;2023-12-04T05:20:08;22.70;;;10.13;;
71207;SDS011;58938;49.868;8.646;2023-12-04T05:22:34;22.08;;;10.43;;
71207;SDS011;58938;49.868;8.646;2023-12-04T05:25:00;19.98;;;9.65;;
71207;SDS011;58938;49.868;8.646;2023-12-04T05:27:26;20.88;;;9.93;;
71207;SDS011;58938;49.868;8.646;2023-12-04T05:29:52;24.33;;;10.23;;
71207;SDS011;58938;49.868;8.646;2023-12-04T05:32:18;21.08;;;10.05;;
71207;SDS011;58938;49.868;8.646;2023-12-04T05:34:44;19.13;;;9.65;;
71207;SDS011;58938;49.868;8.646;2023-12-04T05:37:10;21.77;;;10.27;;
71207;SDS011;58938;49.868;8.646;2023-12-04T05:39:36;20.77;;;9.40;;
71207;SDS011;58938;49.868;8.646;2023-12-04T05:42:02;19.55;;;9.70;;
71207;SDS011;58938;49.868;8.646;2023-12-04T05:44:28;19.33;;;9.82;;
71207;SDS011;58938;49.868;8.646;2023-12-04T05:46:54;19.75;;;10.10;;
71207;SDS011;58938;49.868;8.646;2023-12-04T05:49:20;23.42;;;9.98;;
71207;SDS011;58938;49.868;8.646;2023-12-04T05:51:46;18.23;;;9.57;;
71207;SDS011;58938;49.868;8.646;2023-12-04T05:54:12;20.10;;;10.07;;
71207;SDS011;58938;49.868;8.646;2023-12-04T05:56:38;24.20;;;11.13;;
71207;SDS011;58938;49.868;8.646;2023-12-04T05:59:04;18.02;;;8.73;;
71207;SDS011;58938;49.868;8.646;2023-12-04T06:01:30;17.48;;;8.65;;
71207;SDS011;58938;49.868;8.646;2023-12-04T06:03:56;20.25;;;8.95;;
71207;SDS011;58938;49.868;8.646;2023-12-04T06:06:22;20.33;;;9.17;;
71207;SDS011;58938;49.868;8.646;2023-12-04T06:08:48;21.38;;;10.18;;
71207;SDS011;58938;49.868;8.646;2023-12-04T06:11:13;19.08;;;10.10;;
71207;SDS011;58938;49.868;8.646;2023-12-04T06:13:39;19.45;;;9.88;;
71207;SDS011;58938;49.868;8.646;2023-12-04T06:16:05;20.30;;;9.70;;
71207;SDS011;58938;49.868;8.646;2023-12-04T06:18:31;24.77;;;11.00;;
71207;SDS011;58938;49.868;8.646;2023-12-04T06:20:57;18.75;;;9.48;;
71207;SDS011;58938;49.868;8.646;2023-12-04T06:23:23;23.70;;;10.73;;
71207;SDS011;58938;49.868;8.646;2023-12-04T06:25:49;22.02;;;10.02;;
71207;SDS011;58938;49.868;8.646;2023-12-04T06:28:16;20.20;;;9.43;;
71207;SDS011;58938;49.868;8.646;2023-12-04T06:30:42;20.08;;;8.90;;
71207;SDS011;58938;49.868;8.646;2023-12-04T06:33:08;16.92;;;8.27;;
71207;SDS011;58938;49.868;8.646;2023-12-04T06:35:34;19.40;;;8.70;;
71207;SDS011;58938;49.868;8.646;2023-12-04T06:38:03;19.73;;;9.07;;
71207;SDS011;58938;49.868;8.646;2023-12-04T06:40:31;19.08;;;9.82;;
71207;SDS011;58938;49.868;8.646;2023-12-04T06:42:57;20.38;;;9.02;;
71207;SDS011;58938;49.868;8.646;2023-12-04T06:45:23;16.40;;;8.73;;
71207;SDS011;58938;49.868;8.646;2023-12-04T06:47:50;19.47;;;8.70;;
71207;SDS011;58938;49.868;8.646;2023-12-04T06:50:16;17.75;;;8.55;;
71207;SDS011;58938;49.868;8.646;2023-12-04T06:52:42;20.23;;;9.43;;
71207;SDS011;58938;49.868;8.646;2023-12-04T06:55:08;18.40;;;9.68;;
71207;SDS011;58938;49.868;8.646;2023-12-04T06:57:34;18.02;;;8.82;;
71207;SDS011;58938;49.868;8.646;2023-12-04T07:00:00;23.57;;;9.27;;
71207;SDS011;58938;49.868;8.646;2023-12-04T07:02:28;21.80;;;9.02;;
71207;SDS011;58938;49.868;8.646;2023-12-04T07:04:54;20.48;;;9.55;;
71207;SDS011;58938;49.868;8.646;2023-12-04T07:07:20;24.02;;;10.55;;
71207;SDS011;58938;49.868;8.646;2023-12-04T07:09:46;19.73;;;9.17;;
71207;SDS011;58938;49.868;8.646;2023-12-04T07:12:13;18.25;;;8.48;;
71207;SDS011;58938;49.868;8.646;2023-12-04T07:14:38;19.13;;;8.80;;
71207;SDS011;58938;49.868;8.646;2023-12-04T07:17:04;20.88;;;9.15;;
71207;SDS011;58938;49.868;8.646;2023-12-04T07:19:30;18.37;;;8.63;;
71207;SDS011;58938;49.868;8.646;2023-12-04T07:21:56;20.15;;;9.70;;
71207;SDS011;58938;49.868;8.646;2023-12-04T07:24:22;16.20;;;9.35;;
71207;SDS011;58938;49.868;8.646;2023-12-04T07:26:48;17.77;;;9.35;;
71207;SDS011;58938;49.868;8.646;2023-12-04T07:29:15;18.30;;;9.10;;
71207;SDS011;58938;49.868;8.646;2023-12-04T07:31:41;17.48;;;8.98;;
71207;SDS011;58938;49.868;8.646;2023-12-04T07:34:07;16.92;;;9.30;;
71207;SDS011;58938;49.868;8.646;2023-12-04T07:36:33;17.65;;;8.88;;
71207;SDS011;58938;49.868;8.646;2023-12-04T07:38:59;16.23;;;8.60;;
71207;SDS011;58938;49.868;8.646;2023-12-04T07:41:25;17.15;;;8.52;;
71207;SDS011;58938;49.868;8.646;2023-12-04T07:43:51;18.45;;;9.70;;
71207;SDS011;58938;49.868;8.646;2023-12-04T07:46:17;20.35;;;8.40;;
71207;SDS011;58938;49.868;8.646;2023-12-04T07:48:43;18.97;;;8.83;;
71207;SDS011;58938;49.868;8.646;2023-12-04T07:51:10;18.35;;;9.27;;
71207;SDS011;58938;49.868;8.646;2023-12-04T07:53:36;18.20;;;9.32;;
71207;SDS011;58938;49.868;8.646;2023-12-04T07:56:02;19.02;;;9.32;;
71207;SDS011;58938;49.868;8.646;2023-12-04T07:58:29;21.15;;;9.60;;
71207;SDS011;58938;49.868;8.646;2023-12-04T08:00:55;18.60;;;8.77;;
71207;SDS011;58938;49.868;8.646;2023-12-04T08:03:21;24.65;;;9.05;;
71207;SDS011;58938;49.868;8.646;2023-12-04T08:05:48;16.63;;;8.65;;
71207;SDS011;58938;49.868;8.646;2023-12-04T08:08:14;17.15;;;8.40;;
71207;SDS011;58938;49.868;8.646;2023-12-04T08:10:40;17.93;;;9.30;;
71207;SDS011;58938;49.868;8.646;2023-12-04T08:13:06;18.10;;;8.52;;
71207;SDS011;58938;49.868;8.646;2023-12-04T08:15:32;16.52;;;8.73;;
71207;SDS011;58938;49.868;8.646;2023-12-04T08:17:58;19.08;;;8.60;;
71207;SDS011;58938;49.868;8.646;2023-12-04T08:20:25;17.05;;;8.60;;
71207;SDS011;58938;49.868;8.646;2023-12-04T08:22:51;17.40;;;8.80;;
71207;SDS011;58938;49.868;8.646;2023-12-04T08:25:17;15.90;;;7.60;;
71207;SDS011;58938;49.868;8.646;2023-12-04T08:27:43;19.48;;;8.90;;
71207;SDS011;58938;49.868;8.646;2023-12-04T08:30:09;17.92;;;8.60;;
71207;SDS011;58938;49.868;8.646;2023-12-04T08:32:35;17.02;;;8.30;;
71207;SDS011;58938;49.868;8.646;2023-12-04T08:35:01;21.52;;;9.40;;
71207;SDS011;58938;49.868;8.646;2023-12-04T08:37:28;16.10;;;8.23;;
71207;SDS011;58938;49.868;8.646;2023-12-04T08:39:55;20.02;;;8.70;;
71207;SDS011;58938;49.868;8.646;2023-12-04T08:42:21;19.03;;;8.63;;
71207;SDS011;58938;49.868;8.646;2023-12-04T08:44:47;17.15;;;8.20;;
71207;SDS011;58938;49.868;8.646;2023-12-04T08:47:13;18.98;;;8.70;;
71207;SDS011;58938;49.868;8.646;2023-12-04T08:49:39;17.55;;;8.70;;
71207;SDS011;58938;49.868;8.646;2023-12-04T08:52:08;16.63;;;8.02;;
71207;SDS011;58938;49.868;8.646;2023-12-04T08:54:34;15.63;;;7.85;;
71207;SDS011;58938;49.868;8.646;2023-12-04T08:57:00;16.30;;;9.35;;
71207;SDS011;58938;49.868;8.646;2023-12-04T08:59:26;17.30;;;7.68;;
71207;SDS011;58938;49.868;8.646;2023-12-04T09:01:52;14.20;;;6.97;;
71207;SDS011;58938;49.868;8.646;2023-12-04T09:04:18;18.27;;;7.70;;
71207;SDS011;58938;49.868;8.646;2023-12-04T09:06:44;15.73;;;7.13;;
71207;SDS011;58938;49.868;8.646;2023-12-04T09:09:10;18.27;;;8.05;;
71207;SDS011;58938;49.868;8.646;2023-12-04T09:11:40;16.35;;;8.02;;
71207;SDS011;58938;49.868;8.646;2023-12-04T09:14:05;15.30;;;7.80;;
71207;SDS011;58938;49.868;8.646;2023-12-04T09:16:31;16.42;;;7.63;;
71207;SDS011;58938;49.868;8.646;2023-12-04T09:18:57;20.20;;;7.32;;
71207;SDS011;58938;49.868;8.646;2023-12-04T09:21:23;18.40;;;7.75;;
71207;SDS011;58938;49.868;8.646;2023-12-04T09:23:49;17.85;;;7.90;;
71207;SDS011;58938;49.868;8.646;2023-12-04T09:26:16;16.42;;;7.50;;
71207;SDS011;58938;49.868;8.646;2023-12-04T09:28:42;13.88;;;6.75;;
71207;SDS011;58938;49.868;8.646;2023-12-04T09:31:08;16.15;;;6.78;;
71207;SDS011;58938;49.868;8.646;2023-12-04T09:33:34;17.45;;;7.88;;
71207;SDS011;58938;49.868;8.646;2023-12-04T09:36:01;15.13;;;6.88;;
71207;SDS011;58938;49.868;8.646;2023-12-04T09:38:27;14.70;;;7.88;;
71207;SDS011;58938;49.868;8.646;2023-12-04T09:40:53;13.07;;;7.65;;
71207;SDS011;58938;49.868;8.646;2023-12-04T09:43:20;16.97;;;6.83;;
71207;SDS011;58938;49.868;8.646;2023-12-04T09:45:46;13.60;;;6.63;;
71207;SDS011;58938;49.868;8.646;2023-12-04T09:48:12;15.93;;;8.25;;
71207;SDS011;58938;49.868;8.646;2023-12-04T09:50:38;13.25;;;6.95;;
71207;SDS011;58938;49.868;8.646;2023-12-04T09:53:04;21.08;;;8.70;;
71207;SDS011;58938;49.868;8.646;2023-12-04T09:55:32;18.03;;;6.93;;
71207;SDS011;58938;49.868;8.646;2023-12-04T09:57:58;16.05;;;6.57;;
71207;SDS011;58938;49.868;8.646;2023-12-04T10:00:24;17.90;;;7.90;;
71207;SDS011;58938;49.868;8.646;2023-12-04T10:02:51;17.48;;;7.55;;
71207;SDS011;58938;49.868;8.646;2023-12-04T10:05:17;14.55;;;7.13;;
71207;SDS011;58938;49.868;8.646;2023-12-04T10:07:43;17.57;;;8.30;;
71207;SDS011;58938;49.868;8.646;2023-12-04T10:10:09;18.38;;;8.63;;
71207;SDS011;58938;49.868;8.646;2023-12-04T10:12:35;19.52;;;8.32;;
71207;SDS011;58938;49.868;8.646;2023-12-04T10:15:03;18.33;;;8.38;;
71207;SDS011;58938;49.868;8.646;2023-12-04T10:17:32;16.65;;;8.32;;
71207;SDS011;58938;49.868;8.646;2023-12-04T10:25:19;17.40;;;8.48;;
71207;SDS011;58938;49.868;8.646;2023-12-04T10:27:46;16.58;;;8.25;;
71207;SDS011;58938;49.868;8.646;2023-12-04T10:30:27;19.95;;;9.35;;
71207;SDS011;58938;49.868;8.646;2023-12-04T10:32:55;21.05;;;9.18;;
71207;SDS011;58938;49.868;8.646;2023-12-04T10:35:25;18.95;;;9.10;;
71207;SDS011;58938;49.868;8.646;2023-12-04T10:37:54;19.48;;;9.52;;
71207;SDS011;58938;49.868;8.646;2023-12-04T10:40:23;18.52;;;9.73;;
71207;SDS011;58938;49.868;8.646;2023-12-04T10:42:50;20.42;;;9.18;;
71207;SDS011;58938;49.868;8.646;2023-12-04T10:45:16;17.88;;;8.30;;
71207;SDS011;58938;49.868;8.646;2023-12-04T10:47:42;15.70;;;8.10;;
71207;SDS011;58938;49.868;8.646;2023-12-04T10:50:09;14.32;;;7.90;;
71207;SDS011;58938;49.868;8.646;2023-12-04T10:52:36;17.48;;;9.13;;
71207;SDS011;58938;49.868;8.646;2023-12-04T10:55:05;22.10;;;9.03;;
71207;SDS011;58938;49.868;8.646;2023-12-04T10:57:33;18.50;;;9.02;;
71207;SDS011;58938;49.868;8.646;2023-12-04T11:00:03;21.33;;;10.23;;
71207;SDS011;58938;49.868;8.646;2023-12-04T11:02:33;23.98;;;9.60;;
71207;SDS011;58938;49.868;8.646;2023-12-04T11:05:01;18.45;;;8.65;;
71207;SDS011;58938;49.868;8.646;2023-12-04T11:07:32;17.50;;;9.07;;
71207;SDS011;58938;49.868;8.646;2023-12-04T11:10:00;18.85;;;9.23;;
71207;SDS011;58938;49.868;8.646;2023-12-04T11:12:27;18.17;;;9.93;;
71207;SDS011;58938;49.868;8.646;2023-12-04T11:14:56;22.42;;;8.93;;
71207;SDS011;58938;49.868;8.646;2023-12-04T11:17:25;20.40;;;8.95;;
71207;SDS011;58938;49.868;8.646;2023-12-04T11:19:58;20.37;;;8.43;;
71207;SDS011;58938;49.868;8.646;2023-12-04T11:22:26;17.60;;;9.02;;
71207;SDS011;58938;49.868;8.646;2023-12-04T11:24:52;21.20;;;8.90;;
71207;SDS011;58938;49.868;8.646;2023-12-04T11:27:18;16.27;;;8.68;;
71207;SDS011;58938;49.868;8.646;2023-12-04T11:29:45;19.98;;;8.98;;
71207;SDS011;58938;49.868;8.646;2023-12-04T11:32:14;19.80;;;9.10;;
71207;SDS011;58938;49.868;8.646;2023-12-04T11:34:50;17.83;;;9.35;;
71207;SDS011;58938;49.868;8.646;2023-12-04T11:37:17;18.20;;;9.95;;
71207;SDS011;58938;49.868;8.646;2023-12-04T11:39:45;19.05;;;9.98;;
71207;SDS011;58938;49.868;8.646;2023-12-04T11:42:13;25.88;;;10.23;;
71207;SDS011;58938;49.868;8.646;2023-12-04T11:44:42;19.00;;;8.48;;
71207;SDS011;58938;49.868;8.646;2023-12-04T11:47:08;17.25;;;8.88;;
71207;SDS011;58938;49.868;8.646;2023-12-04T11:49:34;22.75;;;9.60;;
71207;SDS011;58938;49.868;8.646;2023-12-04T11:52:01;18.70;;;9.30;;
71207;SDS011;58938;49.868;8.646;2023-12-04T11:54:35;24.40;;;10.18;;
71207;SDS011;58938;49.868;8.646;2023-12-04T11:59:41;20.25;;;8.60;;
71207;SDS011;58938;49.868;8.646;2023-12-04T12:02:07;18.85;;;8.20;;
71207;SDS011;58938;49.868;8.646;2023-12-04T12:04:33;16.45;;;8.30;;
71207;SDS011;58938;49.868;8.646;2023-12-04T12:07:00;17.80;;;8.77;;
71207;SDS011;58938;49.868;8.646;2023-12-04T12:09:27;17.77;;;8.65;;
71207;SDS011;58938;49.868;8.646;2023-12-04T12:11:54;21.63;;;9.45;;
71207;SDS011;58938;49.868;8.646;2023-12-04T12:14:23;21.83;;;10.48;;
71207;SDS011;58938;49.868;8.646;2023-12-04T12:16:49;20.20;;;10.45;;
71207;SDS011;58938;49.868;8.646;2023-12-04T12:19:15;20.63;;;10.20;;
71207;SDS011;58938;49.868;8.646;2023-12-04T12:21:43;20.80;;;9.05;;
71207;SDS011;58938;49.868;8.646;2023-12-04T12:24:11;20.40;;;9.68;;
71207;SDS011;58938;49.868;8.646;2023-12-04T12:26:37;23.55;;;9.20;;
71207;SDS011;58938;49.868;8.646;2023-12-04T12:29:03;25.27;;;11.43;;
71207;SDS011;58938;49.868;8.646;2023-12-04T12:31:29;20.98;;;9.73;;
71207;SDS011;58938;49.868;8.646;2023-12-04T12:33:55;20.23;;;9.93;;
71207;SDS011;58938;49.868;8.646;2023-12-04T12:36:21;20.42;;;10.00;;
71207;SDS011;58938;49.868;8.646;2023-12-04T12:38:47;17.47;;;9.53;;
71207;SDS011;58938;49.868;8.646;2023-12-04T12:41:17;18.27;;;9.52;;
71207;SDS011;58938;49.868;8.646;2023-12-04T12:43:43;18.98;;;9.73;;
71207;SDS011;58938;49.868;8.646;2023-12-04T12:46:10;23.38;;;10.35;;
71207;SDS011;58938;49.868;8.646;2023-12-04T12:48:36;20.83;;;10.02;;
71207;SDS011;58938;49.868;8.646;2023-12-04T12:51:02;19.40;;;9.70;;
71207;SDS011;58938;49.868;8.646;2023-12-04T12:53:28;15.50;;;7.78;;
71207;SDS011;58938;49.868;8.646;2023-12-04T12:55:59;21.33;;;9.68;;
71207;SDS011;58938;49.868;8.646;2023-12-04T12:58:25;19.30;;;9.35;;
71207;SDS011;58938;49.868;8.646;2023-12-04T13:00:51;17.67;;;9.13;;
71207;SDS011;58938;49.868;8.646;2023-12-04T13:03:18;20.73;;;9.27;;
71207;SDS011;58938;49.868;8.646;2023-12-04T13:05:44;20.23;;;9.38;;
71207;SDS011;58938;49.868;8.646;2023-12-04T13:08:11;16.95;;;8.88;;
71207;SDS011;58938;49.868;8.646;2023-12-04T13:10:37;19.40;;;9.82;;
71207;SDS011;58938;49.868;8.646;2023-12-04T13:13:03;18.10;;;8.60;;
71207;SDS011;58938;49.868;8.646;2023-12-04T13:15:29;17.85;;;8.00;;
71207;SDS011;58938;49.868;8.646;2023-12-04T13:17:55;19.30;;;9.10;;
71207;SDS011;58938;49.868;8.646;2023-12-04T13:20:21;20.17;;;7.88;;
71207;SDS011;58938;49.868;8.646;2023-12-04T13:22:48;17.88;;;8.68;;
71207;SDS011;58938;49.868;8.646;2023-12-04T13:25:14;16.23;;;7.57;;
71207;SDS011;58938;49.868;8.646;2023-12-04T13:27:40;15.18;;;7.38;;
71207;SDS011;58938;49.868;8.646;2023-12-04T13:30:06;14.15;;;7.35;;
71207;SDS011;58938;49.868;8.646;2023-12-04T13:32:33;16.52;;;8.00;;
71207;SDS011;58938;49.868;8.646;2023-12-04T13:35:00;15.70;;;7.85;;
71207;SDS011;58938;49.868;8.646;2023-12-04T13:37:26;16.93;;;8.37;;
71207;SDS011;58938;49.868;8.646;2023-12-04T13:39:53;16.65;;;8.73;;
71207;SDS011;58938;49.868;8.646;2023-12-04T13:42:31;17.98;;;8.38;;
71207;SDS011;58938;49.868;8.646;2023-12-04T13:45:15;15.43;;;7.65;;
71207;SDS011;58938;49.868;8.646;2023-12-04T13:47:41;17.80;;;8.63;;
71207;SDS011;58938;49.868;8.646;2023-12-04T13:50:08;14.98;;;8.20;;
71207;SDS011;58938;49.868;8.646;2023-12-04T13:52:35;16.10;;;7.45;;
71207;SDS011;58938;49.868;8.646;2023-12-04T13:55:01;16.95;;;7.30;;
71207;SDS011;58938;49.868;8.646;2023-12-04T13:57:36;16.58;;;8.02;;
71207;SDS011;58938;49.868;8.646;2023-12-04T14:00:11;15.40;;;8.13;;
71207;SDS011;58938;49.868;8.646;2023-12-04T14:02:37;16.15;;;7.25;;
71207;SDS011;58938;49.868;8.646;2023-12-04T14:05:03;17.00;;;8.07;;
71207;SDS011;58938;49.868;8.646;2023-12-04T14:07:29;15.52;;;8.20;;
71207;SDS011;58938;49.868;8.646;2023-12-04T14:09:55;15.90;;;9.13;;
71207;SDS011;58938;49.868;8.646;2023-12-04T14:12:21;18.45;;;8.77;;
71207;SDS011;58938;49.868;8.646;2023-12-04T14:14:47;14.38;;;7.88;;
71207;SDS011;58938;49.868;8.646;2023-12-04T14:17:13;17.65;;;8.07;;
71207;SDS011;58938;49.868;8.646;2023-12-04T14:19:39;14.40;;;7.60;;
71207;SDS011;58938;49.868;8.646;2023-12-04T14:22:06;14.07;;;7.38;;
71207;SDS011;58938;49.868;8.646;2023-12-04T14:24:32;16.60;;;8.23;;
71207;SDS011;58938;49.868;8.646;2023-12-04T14:27:00;19.30;;;7.90;;
71207;SDS011;58938;49.868;8.646;2023-12-04T14:29:26;18.53;;;8.07;;
71207;SDS011;58938;49.868;8.646;2023-12-04T14:31:52;14.73;;;7.15;;
71207;SDS011;58938;49.868;8.646;2023-12-04T14:34:18;18.15;;;8.27;;
71207;SDS011;58938;49.868;8.646;2023-12-04T14:36:44;18.05;;;9.05;;